Bothwell, United Kingdom
Current Conditions -  °F | °C
As of 11:20 AM on Sunday 21 Dec 2014 (Local Time) from EGPF Reporting Station
Light Rain Light Rain  
Wind Chill: 50°   Ceiling: 700
Heat Index: 50°   Visibility: 2.3mi
Dew Point: 48°   Wind: 18mph
Humidity: 94%   Direction: 230°SW
Pressure: 29.85"   Gusts: NA
Location:  55.8°N, 4.07°W
Report Text: EGPF 211120Z AUTO 23016KT 3700 -RA BKN007/// //////TCU 10/09 Q1011 REDZ
Loading
Personal Weather Stations






























Interactive Weather Map New forecast layout! Learn more

10-Day Weather Forecast

Advertisements
Track Severe Weather on mobile